메인 페이지
METAR-TAF:

METAR-TAF

공항 :

베이루트, 레바논

위도: 33-49N, 경도: 035-29E, 고도: 29m

현재 날씨관측

예보는 30분 전, 18:00시(UTC)에 발표되었습니다.
3kt
온도 19°C
습도 78%
기압 1016 hPa
시정: 6000m

METAR: OLBA 041800Z 09003KT 6000 NSC 19/15 Q1016 NOSIG

시각: 21:30 (18:30 UTC)

예보

예보는 2 시간 30분 전, 16:00시(UTC)에 발표되었습니다.
예보 대상 시간: 04일 18시부터 05일 24시까지 (UTC)
북동8kt, 순간 최대 풍속 18kt
시정: 6000m
전환 중
05일 00시부터 05일 02시까지 (UTC)
동남동20kt
확률 40% :
일시적
05일 00시부터 05일 13시까지 (UTC)
시정: 3000m
황사
전환 중
05일 06시부터 05일 08시까지 (UTC)
북북동20kt
전환 중
05일 12시부터 05일 14시까지 (UTC)
남남서15kt, 순간 최대 풍속 25kt
시정: 4000m
박무
전환 중
05일 18시부터 05일 21시까지 (UTC)
남남동10kt
시정: 7000m
고도 2600ft 상공 구름 보통
고도 7000ft 상공 구름 보통

TAF: OLBA 041600Z 0418/0524 04008G18KT 6000 NSC BECMG 0500/0502 11020KT PROB40 TEMPO 0500/0513 3000 DU BECMG 0506/0508 02020KT BECMG 0512/0514 21015G25KT 4000 BR BECMG 0518/0521 15010KT 7000 SCT026 SCT070

4,000개 이상의 공항 관측 자료 및 예보 (METAR 및 TAF 보고).

지도상에서 검색 가능한 기상관측소가 노란 점과 빨간 점으로 표시되어 있습니다.

기상관측소 명을 보려면 표시 위로 마우스를 이동하세요.

날씨 관측과 예보를 보려면 클릭하세요.

지도 변경 : 확대하려면 엑스 표시가 있는 녹색 버튼, 축소하려면 빼기 표시가 있는 녹색 버튼, 다음 페이지의 지도를 보려면 녹색 화살표를 클릭하세요.


METAR-TAF: